createdAt,value
2022-08-30T00:02:21.200Z,95715.20
2022-08-30T00:04:48.605Z,95716.64
2022-08-30T00:07:15.867Z,95721.78
2022-08-30T00:09:42.725Z,95724.48
2022-08-30T00:12:10.012Z,95720.52
2022-08-30T00:14:37.282Z,95718.69
2022-08-30T00:17:04.466Z,95718.98
2022-08-30T00:19:31.380Z,95712.81
2022-08-30T00:21:58.396Z,95711.01
2022-08-30T00:24:25.373Z,95707.73
2022-08-30T00:26:52.971Z,95715.11
2022-08-30T00:29:20.145Z,95717.66
2022-08-30T00:31:46.901Z,95728.02
2022-08-30T00:34:16.056Z,95730.61
2022-08-30T00:36:44.873Z,95727.08
2022-08-30T00:39:11.927Z,95728.47
2022-08-30T00:41:38.832Z,95731.69
2022-08-30T00:44:05.888Z,95733.06
2022-08-30T00:46:32.868Z,95732.09
2022-08-30T00:49:04.822Z,95729.63
2022-08-30T00:51:32.873Z,95735.55
2022-08-30T00:54:00.564Z,95732.07
2022-08-30T00:56:29.045Z,95730.63
2022-08-30T00:58:58.756Z,95727.79
2022-08-30T01:01:27.088Z,95725.98
2022-08-30T01:03:58.384Z,95723.94
2022-08-30T01:06:32.717Z,95722.32
2022-08-30T01:09:01.406Z,95722.05
2022-08-30T01:11:31.247Z,95720.95
2022-08-30T01:13:58.764Z,95720.63
2022-08-30T01:16:25.644Z,95717.63
2022-08-30T01:18:57.365Z,95716.02
2022-08-30T01:21:33.147Z,95717.10
2022-08-30T01:24:01.518Z,95716.96
2022-08-30T01:26:30.082Z,95718.33
2022-08-30T01:29:01.869Z,95717.35
2022-08-30T01:31:28.890Z,95719.14
2022-08-30T01:33:56.178Z,95720.93
2022-08-30T01:36:24.036Z,95720.48
2022-08-30T01:38:55.057Z,95722.55
2022-08-30T01:41:28.376Z,95732.34
2022-08-30T01:43:57.898Z,95728.77
2022-08-30T01:46:28.938Z,95728.02
2022-08-30T01:48:57.744Z,95723.58
2022-08-30T01:51:26.894Z,95721.08
2022-08-30T01:53:54.363Z,95715.80
2022-08-30T01:56:22.328Z,95716.76
2022-08-30T01:58:50.213Z,95715.46
2022-08-30T02:01:21.008Z,95713.98
2022-08-30T02:03:48.763Z,95715.08
2022-08-30T02:06:18.714Z,95713.02
2022-08-30T02:08:46.073Z,95711.65
2022-08-30T02:11:14.453Z,95709.11
2022-08-30T02:13:43.373Z,95707.94
2022-08-30T02:16:15.356Z,95708.17
2022-08-30T02:18:42.461Z,95707.58
2022-08-30T02:21:10.141Z,95708.70
2022-08-30T02:23:37.276Z,95709.36
2022-08-30T02:26:05.234Z,95708.66
2022-08-30T02:28:32.502Z,95708.05
2022-08-30T02:31:00.162Z,95711.81
2022-08-30T02:33:27.317Z,95709.45
2022-08-30T02:35:55.582Z,95705.07
2022-08-30T02:38:23.479Z,95708.02
2022-08-30T02:40:51.743Z,95708.90
2022-08-30T02:43:19.544Z,95706.73
2022-08-30T02:45:46.510Z,95707.29
2022-08-30T02:48:14.616Z,95707.12
2022-08-30T02:50:43.878Z,95711.89
2022-08-30T02:53:12.716Z,95713.20
2022-08-30T02:55:43.573Z,95711.38
2022-08-30T02:58:10.802Z,95714.29
2022-08-30T03:00:38.995Z,95715.29
2022-08-30T03:03:07.181Z,95712.09
2022-08-30T03:05:35.035Z,95711.48
2022-08-30T03:08:04.791Z,95709.71
2022-08-30T03:10:31.609Z,95711.20
2022-08-30T03:12:58.848Z,95713.60
2022-08-30T03:15:26.012Z,95715.06
2022-08-30T03:17:54.700Z,95712.82
2022-08-30T03:20:22.175Z,95716.63
2022-08-30T03:22:48.841Z,95719.50
2022-08-30T03:25:16.616Z,95724.04
2022-08-30T03:27:43.434Z,95723.14
2022-08-30T03:30:11.614Z,95721.77
2022-08-30T03:32:39.116Z,95724.77
2022-08-30T03:35:07.718Z,95725.65
2022-08-30T03:37:35.700Z,95729.23
2022-08-30T03:40:06.767Z,95727.78
2022-08-30T03:42:33.546Z,95728.55
2022-08-30T03:45:01.859Z,95729.44
2022-08-30T03:47:29.222Z,95730.14
2022-08-30T03:49:56.228Z,95735.14
2022-08-30T03:52:23.036Z,95740.47
2022-08-30T03:54:49.855Z,95743.45
2022-08-30T03:57:19.853Z,95741.33
2022-08-30T03:59:47.350Z,95741.33
2022-08-30T04:02:14.119Z,95739.96
2022-08-30T04:04:41.517Z,95741.92
2022-08-30T04:07:08.912Z,95738.88
2022-08-30T04:09:35.935Z,95741.17
2022-08-30T04:12:03.116Z,95741.50
2022-08-30T04:14:29.981Z,95743.42
2022-08-30T04:16:57.800Z,95740.33
2022-08-30T04:19:24.849Z,95742.23
2022-08-30T04:21:51.663Z,95739.44
2022-08-30T04:24:18.761Z,95742.36
2022-08-30T04:26:45.824Z,95746.15
2022-08-30T04:29:16.225Z,95745.02
2022-08-30T04:31:45.173Z,95747.48
2022-08-30T04:34:13.421Z,95747.64
2022-08-30T04:36:40.546Z,95747.28
2022-08-30T04:39:07.494Z,95749.39
2022-08-30T04:41:36.609Z,95747.78
2022-08-30T04:44:03.527Z,95752.24
2022-08-30T04:46:30.790Z,95750.92
2022-08-30T04:48:57.658Z,95747.84
2022-08-30T04:51:24.617Z,95751.00
2022-08-30T04:53:51.573Z,95751.14
2022-08-30T04:56:24.838Z,95752.12
2022-08-30T04:58:54.299Z,95753.45
2022-08-30T05:01:31.118Z,95754.56
2022-08-30T05:03:59.211Z,95759.27
2022-08-30T05:06:30.430Z,95762.30
2022-08-30T05:08:58.708Z,95765.70
2022-08-30T05:11:26.566Z,95765.35
2022-08-30T05:13:53.732Z,95762.00
2022-08-30T05:16:21.034Z,95763.46
2022-08-30T05:18:50.399Z,95763.55
2022-08-30T05:21:20.984Z,95769.88
2022-08-30T05:23:49.300Z,95766.42
2022-08-30T05:26:32.119Z,95767.68
2022-08-30T05:29:00.023Z,95773.13
2022-08-30T05:31:29.787Z,95769.38
2022-08-30T05:33:57.700Z,95760.87
2022-08-30T05:36:28.736Z,95763.00
2022-08-30T05:38:56.378Z,95764.39
2022-08-30T05:41:26.366Z,95773.83
2022-08-30T05:43:59.317Z,95773.70
2022-08-30T05:46:29.169Z,95771.96
2022-08-30T05:48:57.069Z,95766.74
2022-08-30T05:51:26.081Z,95770.39
2022-08-30T05:53:54.200Z,95774.45
2022-08-30T05:56:28.014Z,95769.89
2022-08-30T05:58:54.812Z,95769.78
2022-08-30T06:01:35.717Z,95758.89
2022-08-30T06:04:05.841Z,95762.41
2022-08-30T06:06:36.933Z,95765.11
2022-08-30T06:09:07.082Z,95764.90
2022-08-30T06:11:36.262Z,95761.73
2022-08-30T06:14:05.424Z,95758.71
2022-08-30T06:16:34.708Z,95763.00
2022-08-30T06:19:03.133Z,95769.44
2022-08-30T06:21:34.685Z,95764.77
2022-08-30T06:24:05.432Z,95761.16
2022-08-30T06:26:38.238Z,95761.38
2022-08-30T06:29:06.249Z,95760.73
2022-08-30T06:31:35.502Z,95768.56
2022-08-30T06:34:04.993Z,95771.08
2022-08-30T06:36:34.393Z,95773.02
2022-08-30T06:39:02.847Z,95775.79
2022-08-30T06:41:33.896Z,95775.66
2022-08-30T06:44:04.270Z,95776.96
2022-08-30T06:46:36.617Z,95776.85
2022-08-30T06:49:07.576Z,95772.71
2022-08-30T06:51:39.839Z,95777.15
2022-08-30T06:54:10.788Z,95780.27
2022-08-30T06:56:55.290Z,95787.58
2022-08-30T06:59:27.761Z,95787.08
2022-08-30T07:01:56.319Z,95790.00
2022-08-30T07:04:25.618Z,95790.02
2022-08-30T07:06:53.995Z,95792.67
2022-08-30T07:09:22.972Z,95793.62
2022-08-30T07:11:52.715Z,95793.52
2022-08-30T07:14:22.493Z,95793.70
2022-08-30T07:16:51.059Z,95794.79
2022-08-30T07:19:21.441Z,95796.25
2022-08-30T07:21:50.685Z,95790.95
2022-08-30T07:24:20.262Z,95792.73
2022-08-30T07:26:52.221Z,95795.04
2022-08-30T07:29:22.210Z,95797.55
2022-08-30T07:31:50.386Z,95797.77
2022-08-30T07:34:20.618Z,95800.23
2022-08-30T07:36:51.010Z,95801.63
2022-08-30T07:39:20.064Z,95805.17
2022-08-30T07:41:49.124Z,95806.71
2022-08-30T07:44:18.164Z,95808.62
2022-08-30T07:46:46.390Z,95808.42
2022-08-30T07:49:14.757Z,95808.39
2022-08-30T07:51:43.097Z,95806.85
2022-08-30T07:54:11.351Z,95806.17
2022-08-30T07:56:39.818Z,95807.27
2022-08-30T07:59:08.230Z,95807.89
2022-08-30T08:01:36.717Z,95808.23
2022-08-30T08:04:05.063Z,95807.71
2022-08-30T08:06:34.882Z,95808.95
2022-08-30T08:09:04.307Z,95807.66
2022-08-30T08:11:34.199Z,95807.69
2022-08-30T08:14:04.285Z,95808.80
2022-08-30T08:16:34.874Z,95803.94
2022-08-30T08:19:05.177Z,95807.00
2022-08-30T08:21:33.476Z,95808.10
2022-08-30T08:24:01.854Z,95810.34
2022-08-30T08:26:30.216Z,95812.13
2022-08-30T08:28:58.627Z,95810.61
2022-08-30T08:31:33.531Z,95811.40
2022-08-30T08:34:06.182Z,95816.31
2022-08-30T08:36:36.080Z,95813.30
2022-08-30T08:39:06.037Z,95807.02
2022-08-30T08:41:49.787Z,95808.88
2022-08-30T08:44:17.884Z,95807.77
2022-08-30T08:47:03.826Z,95808.99
2022-08-30T08:49:34.102Z,95808.58
2022-08-30T08:52:24.361Z,95807.61
2022-08-30T08:55:00.620Z,95806.98
2022-08-30T08:57:34.534Z,95802.47
2022-08-30T09:00:10.101Z,95797.15
2022-08-30T09:03:00.373Z,95793.77
2022-08-30T09:05:35.528Z,95795.11
2022-08-30T09:08:10.161Z,95797.64
2022-08-30T09:10:50.578Z,95797.26
2022-08-30T09:13:23.008Z,95796.73
2022-08-30T09:15:55.462Z,95795.27
2022-08-30T09:18:46.916Z,95797.52
2022-08-30T09:21:26.044Z,95795.98
2022-08-30T09:24:02.200Z,95793.00
2022-08-30T09:26:37.340Z,95790.88
2022-08-30T09:29:16.362Z,95788.75
2022-08-30T09:32:10.091Z,95786.70
2022-08-30T09:34:43.785Z,95785.64
2022-08-30T09:37:36.842Z,95788.15
2022-08-30T09:40:13.275Z,95784.92
2022-08-30T09:42:42.725Z,95783.39
2022-08-30T09:45:20.577Z,95778.67
2022-08-30T09:47:48.863Z,95782.02
2022-08-30T09:50:24.269Z,95782.78
2022-08-30T09:52:55.700Z,95781.64
2022-08-30T09:55:32.111Z,95779.77
2022-08-30T09:58:09.598Z,95778.02
2022-08-30T10:00:43.940Z,95776.48
2022-08-30T10:03:40.889Z,95768.70
2022-08-30T10:06:13.268Z,95767.23
2022-08-30T10:09:04.295Z,95758.66
2022-08-30T10:11:49.153Z,95761.05
2022-08-30T10:14:29.696Z,95754.12
2022-08-30T10:17:06.720Z,95756.55
2022-08-30T10:20:02.625Z,95757.16
2022-08-30T10:22:54.849Z,95764.34
2022-08-30T10:25:35.168Z,95764.40
2022-08-30T10:28:04.016Z,95765.52
2022-08-30T10:30:36.499Z,95763.27
2022-08-30T10:33:31.879Z,95765.34
2022-08-30T10:36:04.892Z,95765.36
2022-08-30T10:38:41.861Z,95764.05
2022-08-30T10:41:15.779Z,95760.70
2022-08-30T10:44:06.899Z,95760.23
2022-08-30T10:46:54.019Z,95758.14
2022-08-30T10:49:25.883Z,95753.46
2022-08-30T10:52:12.323Z,95753.84
2022-08-30T10:54:47.555Z,95745.69
2022-08-30T10:57:17.135Z,95744.41
2022-08-30T10:59:52.464Z,95746.88
2022-08-30T11:02:36.550Z,95741.31
2022-08-30T11:05:22.830Z,95739.54
2022-08-30T11:08:08.634Z,95738.74
2022-08-30T11:11:18.010Z,95740.27
2022-08-30T11:13:48.081Z,95738.73
2022-08-30T11:16:20.419Z,95739.97
2022-08-30T11:18:51.929Z,95737.18
2022-08-30T11:21:43.775Z,95737.88
2022-08-30T11:24:24.031Z,95733.26
2022-08-30T11:26:57.319Z,95729.52
2022-08-30T11:29:28.394Z,95723.60
2022-08-30T11:31:59.166Z,95715.46
2022-08-30T11:34:47.811Z,95717.67
2022-08-30T11:37:36.023Z,95728.87
2022-08-30T11:40:07.941Z,95735.42
2022-08-30T11:42:49.581Z,95742.73
2022-08-30T11:45:25.274Z,95748.80
2022-08-30T11:47:59.553Z,95746.71
2022-08-30T11:50:49.169Z,95746.00
2022-08-30T11:53:35.280Z,95739.16
2022-08-30T11:56:15.692Z,95737.61
2022-08-30T11:59:30.617Z,95742.11
2022-08-30T12:02:00.356Z,95747.96
2022-08-30T12:04:58.108Z,95746.64
2022-08-30T12:07:58.245Z,95742.45
2022-08-30T12:10:38.112Z,95741.62
2022-08-30T12:13:06.758Z,95748.14
2022-08-30T12:15:56.706Z,95749.95
2022-08-30T12:18:31.209Z,95750.39
2022-08-30T12:21:22.717Z,95747.64
2022-08-30T12:23:53.632Z,95749.45
2022-08-30T12:26:25.054Z,95746.87
2022-08-30T12:29:17.427Z,95747.91
2022-08-30T12:31:58.694Z,95745.28
2022-08-30T12:34:31.905Z,95737.13
2022-08-30T12:37:04.913Z,95738.69
2022-08-30T12:39:36.632Z,95743.58
2022-08-30T12:42:27.278Z,95747.05
2022-08-30T12:44:59.235Z,95753.29
2022-08-30T12:47:53.413Z,95754.08
2022-08-30T12:50:28.496Z,95751.34
2022-08-30T12:53:13.788Z,95745.05
2022-08-30T12:56:08.317Z,95754.20
2022-08-30T12:58:41.918Z,95757.75
2022-08-30T13:01:29.953Z,95755.02
2022-08-30T13:04:27.116Z,95742.80
2022-08-30T13:07:01.174Z,95728.58
2022-08-30T13:09:34.119Z,95728.80
2022-08-30T13:12:05.961Z,95724.05
2022-08-30T13:14:42.285Z,95725.63
2022-08-30T13:17:28.805Z,95729.52
2022-08-30T13:20:06.004Z,95728.83
2022-08-30T13:22:37.502Z,95716.68
2022-08-30T13:25:08.526Z,95716.92
2022-08-30T13:27:38.850Z,95709.77
2022-08-30T13:30:16.311Z,95708.98
2022-08-30T13:32:44.943Z,95712.70
2022-08-30T13:35:13.427Z,95716.98
2022-08-30T13:37:49.432Z,95713.16
2022-08-30T13:40:21.809Z,95715.10
2022-08-30T13:42:51.211Z,95711.08
2022-08-30T13:48:11.444Z,95716.39
2022-08-30T13:50:40.594Z,95721.63
2022-08-30T13:53:15.490Z,95721.64
2022-08-30T13:55:44.827Z,95720.09
2022-08-30T13:58:13.293Z,95712.56
2022-08-30T14:00:43.211Z,95707.99
2022-08-30T14:03:15.781Z,95707.84
2022-08-30T14:05:50.498Z,95708.63
2022-08-30T14:08:48.262Z,95708.89
2022-08-30T14:11:22.436Z,95703.98
2022-08-30T14:16:44.129Z,95706.30
2022-08-30T14:19:14.538Z,95704.91
2022-08-30T14:21:43.783Z,95702.38
2022-08-30T14:24:20.138Z,95701.59
2022-08-30T14:26:51.852Z,95703.87
2022-08-30T14:29:26.378Z,95700.89
2022-08-30T14:31:58.555Z,95701.03
2022-08-30T14:34:29.490Z,95708.69
2022-08-30T14:36:58.394Z,95713.84
2022-08-30T14:39:27.439Z,95714.94
2022-08-30T14:41:56.087Z,95718.99
2022-08-30T14:44:25.592Z,95723.08
2022-08-30T14:46:54.522Z,95725.60
2022-08-30T14:49:24.588Z,95722.19
2022-08-30T14:51:53.865Z,95720.71
2022-08-30T14:54:25.698Z,95722.83
2022-08-30T14:56:55.199Z,95722.70
2022-08-30T14:59:25.669Z,95720.95
2022-08-30T15:01:54.627Z,95719.77
2022-08-30T15:04:23.419Z,95718.44
2022-08-30T15:06:52.574Z,95720.50
2022-08-30T15:09:23.833Z,95718.38
2022-08-30T15:11:58.519Z,95724.89
2022-08-30T15:14:29.187Z,95726.10
2022-08-30T15:16:59.898Z,95719.31
2022-08-30T15:19:29.069Z,95715.73
2022-08-30T15:22:01.985Z,95715.02
2022-08-30T15:24:31.373Z,95717.67
2022-08-30T15:27:01.037Z,95716.19
2022-08-30T15:29:30.495Z,95712.23
2022-08-30T15:32:02.483Z,95717.90
2022-08-30T15:34:32.180Z,95713.08
2022-08-30T15:37:00.965Z,95717.79
2022-08-30T15:39:29.658Z,95716.36
2022-08-30T15:42:00.939Z,95716.82
2022-08-30T15:44:31.775Z,95715.06
2022-08-30T15:47:00.062Z,95715.81
2022-08-30T15:49:28.815Z,95717.84
2022-08-30T15:52:01.554Z,95716.49
2022-08-30T15:54:30.054Z,95713.52
2022-08-30T15:57:01.599Z,95710.27
2022-08-30T15:59:31.935Z,95709.54
2022-08-30T16:02:00.883Z,95708.73
2022-08-30T16:04:29.809Z,95706.20
2022-08-30T16:06:58.112Z,95707.37
2022-08-30T16:09:32.694Z,95707.45
2022-08-30T16:12:02.855Z,95702.60
2022-08-30T16:14:34.717Z,95701.30
2022-08-30T16:17:03.258Z,95703.07
2022-08-30T16:19:31.909Z,95706.66
2022-08-30T16:22:00.487Z,95707.17
2022-08-30T16:24:29.053Z,95706.25
2022-08-30T16:26:57.682Z,95708.28
2022-08-30T16:29:26.026Z,95702.52
2022-08-30T16:31:54.231Z,95702.00
2022-08-30T16:34:22.914Z,95704.24
2022-08-30T16:36:51.161Z,95706.36
2022-08-30T16:39:19.747Z,95707.59
2022-08-30T16:41:49.171Z,95708.77
2022-08-30T16:44:18.631Z,95709.22
2022-08-30T16:46:52.637Z,95708.61
2022-08-30T16:49:25.366Z,95708.72
2022-08-30T16:51:54.286Z,95706.23
2022-08-30T16:54:23.039Z,95704.73
2022-08-30T16:56:53.034Z,95707.04
2022-08-30T16:59:21.253Z,95701.09
2022-08-30T17:01:50.619Z,95700.96
2022-08-30T17:04:20.485Z,95707.58
2022-08-30T17:06:50.302Z,95705.63
2022-08-30T17:09:20.491Z,95704.90
2022-08-30T17:11:48.784Z,95701.47
2022-08-30T17:14:27.560Z,95700.73
2022-08-30T17:17:00.571Z,95698.58
2022-08-30T17:19:30.175Z,95698.66
2022-08-30T17:21:59.350Z,95701.35
2022-08-30T17:24:28.385Z,95702.52
2022-08-30T17:26:58.168Z,95700.36
2022-08-30T17:29:27.808Z,95701.32
2022-08-30T17:31:56.846Z,95704.54
2022-08-30T17:34:27.518Z,95700.06
2022-08-30T17:36:58.483Z,95704.73
2022-08-30T17:39:28.604Z,95706.31
2022-08-30T17:41:57.738Z,95704.59
2022-08-30T17:44:29.111Z,95707.33
2022-08-30T17:46:58.968Z,95709.48
2022-08-30T17:49:29.307Z,95711.38
2022-08-30T17:51:58.295Z,95716.20
2022-08-30T17:54:28.617Z,95713.82
2022-08-30T17:56:58.417Z,95717.98
2022-08-30T17:59:31.484Z,95721.05
2022-08-30T18:02:02.610Z,95723.65
2022-08-30T18:04:31.600Z,95723.59
2022-08-30T18:07:00.251Z,95723.15
2022-08-30T18:09:33.703Z,95724.15
2022-08-30T18:12:02.743Z,95734.42
2022-08-30T18:14:31.541Z,95740.43
2022-08-30T18:16:59.914Z,95742.71
2022-08-30T18:19:30.571Z,95745.09
2022-08-30T18:21:59.665Z,95748.56
2022-08-30T18:24:31.823Z,95747.75
2022-08-30T18:27:02.021Z,95751.42
2022-08-30T18:29:32.162Z,95753.48
2022-08-30T18:32:02.724Z,95749.66
2022-08-30T18:34:32.131Z,95751.83
2022-08-30T18:37:01.417Z,95753.41
2022-08-30T18:42:19.049Z,95760.30
2022-08-30T18:44:49.169Z,95762.08
2022-08-30T18:47:17.244Z,95759.48
2022-08-30T18:49:53.974Z,95757.52
2022-08-30T18:52:22.861Z,95757.79
2022-08-30T18:54:52.656Z,95756.84
2022-08-30T18:57:22.746Z,95753.52
2022-08-30T18:59:51.493Z,95752.98
2022-08-30T19:02:20.613Z,95752.18
2022-08-30T19:04:49.528Z,95751.92
2022-08-30T19:07:19.678Z,95752.79
2022-08-30T19:09:49.053Z,95749.83
2022-08-30T19:12:19.406Z,95745.45
2022-08-30T19:14:49.419Z,95744.41
2022-08-30T19:17:18.393Z,95747.63
2022-08-30T19:19:49.138Z,95747.88
2022-08-30T19:22:20.568Z,95750.30
2022-08-30T19:24:50.370Z,95748.55
2022-08-30T19:27:36.987Z,95749.27
2022-08-30T19:30:09.365Z,95752.59
2022-08-30T19:32:37.658Z,95752.23
2022-08-30T19:35:07.151Z,95751.13
2022-08-30T19:37:36.365Z,95752.98
2022-08-30T19:40:08.740Z,95748.11
2022-08-30T19:42:43.371Z,95745.28
2022-08-30T19:45:21.681Z,95740.46
2022-08-30T19:47:52.240Z,95740.14
2022-08-30T19:50:22.052Z,95742.08
2022-08-30T19:52:54.801Z,95745.29
2022-08-30T19:55:28.388Z,95743.48
2022-08-30T19:57:58.538Z,95744.13
2022-08-30T20:00:27.445Z,95743.69
2022-08-30T20:03:01.202Z,95743.61
2022-08-30T20:05:39.754Z,95743.59
2022-08-30T20:08:08.363Z,95747.54
2022-08-30T20:10:37.308Z,95746.44
2022-08-30T20:13:06.230Z,95749.55
2022-08-30T20:15:37.700Z,95754.56
2022-08-30T20:18:13.490Z,95754.33
2022-08-30T20:20:49.620Z,95753.95
2022-08-30T20:23:21.659Z,95755.85
2022-08-30T20:24:28.143Z,95757.38
2022-08-30T20:25:54.704Z,95754.02
2022-08-30T20:28:25.132Z,95750.51
2022-08-30T20:30:54.862Z,95747.69
2022-08-30T20:33:25.514Z,95744.05
2022-08-30T20:35:53.862Z,95748.58
2022-08-30T20:38:22.233Z,95746.77
2022-08-30T20:40:53.948Z,95745.73
2022-08-30T20:43:26.397Z,95741.48
2022-08-30T20:45:55.753Z,95737.79
2022-08-30T20:48:28.947Z,95731.56
2022-08-30T20:50:57.004Z,95726.44
2022-08-30T20:53:25.377Z,95727.52
2022-08-30T20:55:53.471Z,95725.21
2022-08-30T20:58:21.727Z,95723.95
2022-08-30T21:00:54.843Z,95719.92
2022-08-30T21:03:26.123Z,95722.96
2022-08-30T21:05:57.109Z,95717.30
2022-08-30T21:08:25.621Z,95717.67
2022-08-30T21:10:55.192Z,95715.21
2022-08-30T21:13:23.489Z,95713.19
2022-08-30T21:15:54.801Z,95713.55
2022-08-30T21:18:23.661Z,95714.54
2022-08-30T21:20:51.763Z,95714.52
2022-08-30T21:23:19.999Z,95713.65
2022-08-30T21:25:48.912Z,95715.95
2022-08-30T21:28:17.805Z,95721.14
2022-08-30T21:30:46.309Z,95719.09
2022-08-30T21:33:14.928Z,95715.60
2022-08-30T21:36:01.904Z,95709.11
2022-08-30T21:38:30.653Z,95708.96
2022-08-30T21:40:59.015Z,95707.31
2022-08-30T21:43:27.192Z,95708.60
2022-08-30T21:45:55.292Z,95712.47
2022-08-30T21:48:23.437Z,95710.08
2022-08-30T21:50:51.628Z,95708.69
2022-08-30T21:53:20.029Z,95703.48
2022-08-30T21:55:48.511Z,95699.77
2022-08-30T21:58:17.988Z,95697.78
2022-08-30T22:00:46.086Z,95691.98
2022-08-30T22:03:14.776Z,95693.98
2022-08-30T22:05:44.096Z,95692.14
2022-08-30T22:08:12.467Z,95693.73
2022-08-30T22:10:40.833Z,95692.05
2022-08-30T22:13:10.260Z,95697.90
2022-08-30T22:15:39.334Z,95691.42
2022-08-30T22:18:08.004Z,95691.02
2022-08-30T22:20:36.028Z,95690.45
2022-08-30T22:23:05.072Z,95684.84
2022-08-30T22:25:33.658Z,95681.97
2022-08-30T22:28:02.016Z,95682.02
2022-08-30T22:30:32.516Z,95679.25
2022-08-30T22:33:00.846Z,95676.45
2022-08-30T22:35:29.128Z,95679.89
2022-08-30T22:37:57.407Z,95679.63
2022-08-30T22:40:25.642Z,95679.55
2022-08-30T22:42:53.876Z,95679.55
2022-08-30T22:45:22.175Z,95684.15
2022-08-30T22:47:50.413Z,95687.43
2022-08-30T22:50:18.817Z,95689.91
2022-08-30T22:52:47.089Z,95691.00
2022-08-30T22:55:15.557Z,95695.05
2022-08-30T22:57:43.691Z,95689.90
2022-08-30T23:00:15.724Z,95689.90
2022-08-30T23:02:49.550Z,95688.36
2022-08-30T23:05:20.183Z,95686.92
2022-08-30T23:07:48.936Z,95684.00
2022-08-30T23:10:18.127Z,95683.04
2022-08-30T23:12:46.214Z,95674.95
2022-08-30T23:15:16.630Z,95675.67
2022-08-30T23:17:44.914Z,95677.52
2022-08-30T23:20:13.612Z,95677.80
2022-08-30T23:22:41.765Z,95674.59
2022-08-30T23:25:31.996Z,95671.66
2022-08-30T23:28:23.115Z,95675.25
2022-08-30T23:31:10.301Z,95674.41
2022-08-30T23:33:57.320Z,95674.20
2022-08-30T23:36:44.440Z,95677.25
2022-08-30T23:39:31.582Z,95674.44
2022-08-30T23:42:18.430Z,95674.98
2022-08-30T23:45:05.325Z,95675.95
2022-08-30T23:47:52.921Z,95683.33
2022-08-30T23:50:39.873Z,95682.59
2022-08-30T23:53:26.518Z,95680.59
2022-08-30T23:56:13.364Z,95684.73
2022-08-30T23:59:00.707Z,95688.35
